createdAt,value
2018-11-14T00:00:11.799Z,3.30
2018-11-14T00:02:39.997Z,3.20
2018-11-14T00:05:08.195Z,3.20
2018-11-14T00:07:36.464Z,3.20
2018-11-14T00:10:20.580Z,3.00
2018-11-14T00:12:48.925Z,2.90
2018-11-14T00:15:19.258Z,2.90
2018-11-14T00:17:48.038Z,2.80
2018-11-14T00:20:16.561Z,2.80
2018-11-14T00:22:45.585Z,2.70
2018-11-14T00:25:13.534Z,2.60
2018-11-14T00:27:41.532Z,2.60
2018-11-14T00:30:12.961Z,2.50
2018-11-14T00:32:41.300Z,2.50
2018-11-14T00:35:09.795Z,2.40
2018-11-14T00:37:38.342Z,2.40
2018-11-14T00:40:08.513Z,2.30
2018-11-14T00:42:36.703Z,2.20
2018-11-14T00:45:06.233Z,2.20
2018-11-14T00:47:34.293Z,2.10
2018-11-14T00:50:03.295Z,2.10
2018-11-14T00:52:31.233Z,2.00
2018-11-14T00:54:59.190Z,2.00
2018-11-14T00:57:27.054Z,1.90
2018-11-14T00:59:55.068Z,1.90
2018-11-14T01:02:23.506Z,1.90
2018-11-14T01:04:51.509Z,1.90
2018-11-14T01:07:19.530Z,1.80
2018-11-14T01:09:47.541Z,1.80
2018-11-14T01:12:15.952Z,1.70
2018-11-14T01:14:44.047Z,1.70
2018-11-14T01:17:12.032Z,1.70
2018-11-14T01:19:40.038Z,1.60
2018-11-14T01:22:09.123Z,1.60
2018-11-14T01:24:37.378Z,1.50
2018-11-14T01:27:05.389Z,1.50
2018-11-14T01:29:33.268Z,1.50
2018-11-14T01:32:01.310Z,1.40
2018-11-14T01:34:29.236Z,1.40
2018-11-14T01:36:57.150Z,1.40
2018-11-14T01:39:25.181Z,1.40
2018-11-14T01:41:53.120Z,1.30
2018-11-14T01:44:21.420Z,1.30
2018-11-14T01:46:49.560Z,1.20
2018-11-14T01:49:17.538Z,1.20
2018-11-14T01:51:45.553Z,1.20
2018-11-14T01:54:13.654Z,1.20
2018-11-14T01:56:41.531Z,1.20
2018-11-14T01:59:09.589Z,1.30
2018-11-14T02:01:37.480Z,1.20
2018-11-14T02:04:05.517Z,1.30
2018-11-14T02:06:34.327Z,1.30
2018-11-14T02:09:02.451Z,1.30
2018-11-14T02:11:30.461Z,1.30
2018-11-14T02:13:58.550Z,1.30
2018-11-14T02:16:26.565Z,1.30
2018-11-14T02:18:54.762Z,1.30
2018-11-14T02:21:22.916Z,1.30
2018-11-14T02:23:50.812Z,1.20
2018-11-14T02:26:18.824Z,1.20
2018-11-14T02:28:46.762Z,1.10
2018-11-14T02:31:14.930Z,1.10
2018-11-14T02:33:42.913Z,1.00
2018-11-14T02:36:11.041Z,1.00
2018-11-14T02:38:39.021Z,1.00
2018-11-14T02:41:06.932Z,0.90
2018-11-14T02:43:34.889Z,0.90
2018-11-14T02:46:02.867Z,0.80
2018-11-14T02:48:31.082Z,0.80
2018-11-14T02:51:10.446Z,0.80
2018-11-14T02:53:38.425Z,0.80
2018-11-14T02:56:09.709Z,0.80
2018-11-14T02:58:37.960Z,0.90
2018-11-14T03:01:06.547Z,0.90
2018-11-14T03:03:34.561Z,0.80
2018-11-14T03:06:02.659Z,0.90
2018-11-14T03:08:30.665Z,0.80
2018-11-14T03:10:58.730Z,0.80
2018-11-14T03:13:26.828Z,0.70
2018-11-14T03:15:54.739Z,0.70
2018-11-14T03:18:22.762Z,0.70
2018-11-14T03:20:51.012Z,0.70
2018-11-14T03:23:19.457Z,0.80
2018-11-14T03:25:47.565Z,0.80
2018-11-14T03:28:15.764Z,0.80
2018-11-14T03:30:44.117Z,0.80
2018-11-14T03:33:12.504Z,0.80
2018-11-14T03:35:46.389Z,0.90
2018-11-14T03:38:14.593Z,0.90
2018-11-14T03:40:42.613Z,0.90
2018-11-14T03:43:10.625Z,0.90
2018-11-14T03:45:38.724Z,0.90
2018-11-14T03:48:06.826Z,0.80
2018-11-14T03:50:35.167Z,0.80
2018-11-14T03:53:03.267Z,0.80
2018-11-14T03:55:31.369Z,0.80
2018-11-14T03:57:59.517Z,0.80
2018-11-14T04:00:27.490Z,0.80
2018-11-14T04:02:55.463Z,0.70
2018-11-14T04:05:23.629Z,0.70
2018-11-14T04:07:51.638Z,0.70
2018-11-14T04:10:19.609Z,0.80
2018-11-14T04:12:48.487Z,0.80
2018-11-14T04:15:16.633Z,0.90
2018-11-14T04:17:44.961Z,1.00
2018-11-14T04:20:14.566Z,1.00
2018-11-14T04:22:42.733Z,1.00
2018-11-14T04:25:12.844Z,1.00
2018-11-14T04:27:41.515Z,1.00
2018-11-14T04:30:11.728Z,1.00
2018-11-14T04:32:39.767Z,1.00
2018-11-14T04:35:09.249Z,0.90
2018-11-14T04:37:37.309Z,0.90
2018-11-14T04:40:06.779Z,0.90
2018-11-14T04:42:34.814Z,0.90
2018-11-14T04:45:02.832Z,0.90
2018-11-14T04:47:31.122Z,0.80
2018-11-14T04:49:59.040Z,0.80
2018-11-14T04:52:27.629Z,0.70
2018-11-14T04:54:55.739Z,0.70
2018-11-14T04:57:23.809Z,0.60
2018-11-14T04:59:52.018Z,0.50
2018-11-14T05:02:19.912Z,0.50
2018-11-14T05:04:48.101Z,0.40
2018-11-14T05:07:17.264Z,0.40
2018-11-14T05:09:45.362Z,0.40
2018-11-14T05:12:13.373Z,0.40
2018-11-14T05:14:41.310Z,0.40
2018-11-14T05:17:09.342Z,0.40
2018-11-14T05:19:37.266Z,0.40
2018-11-14T05:22:05.498Z,0.40
2018-11-14T05:24:34.037Z,0.30
2018-11-14T05:27:02.050Z,0.30
2018-11-14T05:29:30.075Z,0.20
2018-11-14T05:31:58.127Z,0.20
2018-11-14T05:34:26.085Z,0.10
2018-11-14T05:36:54.177Z,0.10
2018-11-14T05:39:24.320Z,0.10
2018-11-14T05:41:52.208Z,0.00
2018-11-14T05:44:20.453Z,0.00
2018-11-14T05:46:48.870Z,0.00
2018-11-14T05:49:17.189Z,0.00
2018-11-14T05:51:45.367Z,0.00
2018-11-14T05:54:13.425Z,0.00
2018-11-14T05:56:41.351Z,0.00
2018-11-14T05:59:09.477Z,-0.10
2018-11-14T06:01:37.518Z,-0.10
2018-11-14T06:04:06.179Z,-0.20
2018-11-14T06:06:35.047Z,-0.20
2018-11-14T06:09:03.604Z,-0.20
2018-11-14T06:11:31.734Z,-0.20
2018-11-14T06:13:59.953Z,-0.30
2018-11-14T06:16:28.032Z,-0.30
2018-11-14T06:18:55.930Z,-0.30
2018-11-14T06:21:24.041Z,-0.30
2018-11-14T06:23:52.119Z,-0.30
2018-11-14T06:26:20.201Z,-0.30
2018-11-14T06:28:48.580Z,-0.40
2018-11-14T06:31:16.505Z,-0.40
2018-11-14T06:33:44.788Z,-0.40
2018-11-14T06:36:12.756Z,-0.40
2018-11-14T06:38:41.047Z,-0.40
2018-11-14T06:41:09.175Z,-0.30
2018-11-14T06:43:37.278Z,-0.30
2018-11-14T06:46:05.621Z,-0.40
2018-11-14T06:48:33.652Z,-0.40
2018-11-14T06:51:01.506Z,-0.40
2018-11-14T06:53:29.889Z,-0.40
2018-11-14T06:55:58.164Z,-0.40
2018-11-14T06:58:26.356Z,-0.40
2018-11-14T07:00:54.528Z,-0.40
2018-11-14T07:03:22.742Z,-0.40
2018-11-14T07:05:51.228Z,-0.40
2018-11-14T07:08:19.639Z,-0.40
2018-11-14T07:10:47.806Z,-0.40
2018-11-14T07:13:16.713Z,-0.40
2018-11-14T07:15:45.703Z,-0.40
2018-11-14T07:18:13.806Z,-0.30
2018-11-14T07:20:44.007Z,-0.40
2018-11-14T07:23:12.293Z,-0.30
2018-11-14T07:25:40.295Z,-0.30
2018-11-14T07:28:08.678Z,-0.20
2018-11-14T07:30:37.355Z,-0.10
2018-11-14T07:33:06.793Z,-0.20
2018-11-14T07:35:35.157Z,-0.20
2018-11-14T07:39:07.664Z,-0.10
2018-11-14T07:41:37.578Z,0.00
2018-11-14T07:44:06.077Z,0.10
2018-11-14T07:46:35.307Z,0.10
2018-11-14T07:49:03.506Z,0.10
2018-11-14T07:51:32.095Z,0.10
2018-11-14T07:54:00.401Z,0.10
2018-11-14T07:56:28.481Z,0.10
2018-11-14T07:58:56.664Z,0.10
2018-11-14T08:01:25.067Z,0.10
2018-11-14T08:03:53.388Z,0.10
2018-11-14T08:06:21.350Z,0.20
2018-11-14T08:08:49.539Z,0.20
2018-11-14T08:11:17.442Z,0.30
2018-11-14T08:13:47.627Z,0.30
2018-11-14T08:16:15.850Z,0.40
2018-11-14T08:18:45.041Z,0.50
2018-11-14T08:21:13.349Z,0.50
2018-11-14T08:23:41.357Z,0.50
2018-11-14T08:26:10.357Z,0.50
2018-11-14T08:28:38.584Z,0.60
2018-11-14T08:31:07.131Z,0.60
2018-11-14T08:33:35.524Z,0.70
2018-11-14T08:36:03.699Z,0.80
2018-11-14T08:38:32.889Z,0.90
2018-11-14T08:41:01.021Z,0.90
2018-11-14T08:43:29.146Z,1.00
2018-11-14T08:45:57.358Z,1.20
2018-11-14T08:48:25.895Z,1.30
2018-11-14T08:50:54.801Z,1.50
2018-11-14T08:53:23.094Z,1.70
2018-11-14T08:55:51.398Z,2.00
2018-11-14T08:58:20.991Z,2.20
2018-11-14T09:00:49.216Z,2.50
2018-11-14T09:03:17.486Z,2.70
2018-11-14T09:05:45.596Z,2.80
2018-11-14T09:08:14.118Z,2.90
2018-11-14T09:10:42.117Z,3.10
2018-11-14T09:13:15.542Z,3.20
2018-11-14T09:15:43.971Z,3.40
2018-11-14T09:18:12.223Z,3.50
2018-11-14T09:20:40.485Z,3.70
2018-11-14T09:23:08.457Z,3.90
2018-11-14T09:25:37.947Z,4.00
2018-11-14T09:28:06.711Z,4.30
2018-11-14T09:30:34.784Z,4.50
2018-11-14T09:33:03.154Z,4.70
2018-11-14T09:35:31.228Z,4.90
2018-11-14T09:38:00.025Z,5.10
2018-11-14T09:40:28.844Z,5.30
2018-11-14T09:42:56.758Z,5.40
2018-11-14T09:45:26.300Z,5.60
2018-11-14T09:47:54.287Z,5.80
2018-11-14T09:50:23.732Z,6.00
2018-11-14T09:52:53.331Z,6.20
2018-11-14T09:55:21.507Z,6.30
2018-11-14T09:57:49.663Z,6.50
2018-11-14T10:00:19.825Z,6.60
2018-11-14T10:02:49.188Z,6.80
2018-11-14T10:05:18.445Z,7.00
2018-11-14T10:07:46.672Z,7.20
2018-11-14T10:10:16.019Z,7.30
2018-11-14T10:12:44.490Z,7.40
2018-11-14T10:15:14.813Z,7.50
2018-11-14T10:17:43.394Z,7.60
2018-11-14T10:20:12.993Z,7.70
2018-11-14T10:22:41.444Z,7.80
2018-11-14T10:25:10.092Z,7.90
2018-11-14T10:27:39.806Z,8.00
2018-11-14T10:30:14.360Z,8.10
2018-11-14T10:32:45.038Z,8.20
2018-11-14T10:35:13.996Z,8.30
2018-11-14T10:37:42.895Z,8.50
2018-11-14T10:40:14.612Z,8.60
2018-11-14T10:42:45.197Z,8.80
2018-11-14T10:45:15.776Z,8.90
2018-11-14T10:47:44.086Z,8.90
2018-11-14T10:50:17.120Z,9.00
2018-11-14T10:52:48.228Z,9.10
2018-11-14T10:55:18.115Z,9.20
2018-11-14T10:57:49.445Z,9.30
2018-11-14T11:00:28.180Z,9.30
2018-11-14T11:03:04.307Z,9.40
2018-11-14T11:05:40.567Z,9.60
2018-11-14T11:08:15.118Z,9.60
2018-11-14T11:10:52.193Z,9.70
2018-11-14T11:13:26.976Z,9.70
2018-11-14T11:16:02.634Z,9.70
2018-11-14T11:18:32.321Z,9.80
2018-11-14T11:21:00.891Z,9.80
2018-11-14T11:23:28.968Z,9.90
2018-11-14T11:25:57.109Z,9.90
2018-11-14T11:28:25.532Z,9.90
2018-11-14T11:30:53.599Z,9.90
2018-11-14T11:33:22.901Z,10.00
2018-11-14T11:35:51.233Z,10.00
2018-11-14T11:38:27.395Z,10.00
2018-11-14T11:40:56.355Z,10.00
2018-11-14T11:43:24.665Z,10.00
2018-11-14T11:45:52.896Z,10.00
2018-11-14T11:48:21.426Z,10.10
2018-11-14T11:50:49.916Z,10.10
2018-11-14T11:53:18.132Z,10.10
2018-11-14T11:55:46.361Z,10.10
2018-11-14T11:58:14.632Z,10.10
2018-11-14T12:00:43.308Z,10.00
2018-11-14T12:03:11.308Z,10.10
2018-11-14T12:05:39.377Z,10.10
2018-11-14T12:08:07.529Z,10.20
2018-11-14T12:10:35.569Z,10.20
2018-11-14T12:13:04.378Z,10.20
2018-11-14T12:15:32.602Z,10.20
2018-11-14T12:18:02.459Z,10.20
2018-11-14T12:20:30.555Z,10.20
2018-11-14T12:22:58.556Z,10.10
2018-11-14T12:25:26.726Z,10.00
2018-11-14T12:27:54.769Z,9.90
2018-11-14T12:30:23.139Z,9.90
2018-11-14T12:32:51.692Z,10.00
2018-11-14T12:35:20.459Z,9.90
2018-11-14T12:37:49.130Z,10.00
2018-11-14T12:40:17.150Z,10.00
2018-11-14T12:42:45.497Z,9.90
2018-11-14T12:45:15.229Z,9.90
2018-11-14T12:47:43.400Z,9.90
2018-11-14T12:50:12.446Z,9.90
2018-11-14T12:52:40.905Z,9.80
2018-11-14T12:55:11.362Z,9.80
2018-11-14T12:57:40.556Z,9.80
2018-11-14T13:00:10.964Z,9.80
2018-11-14T13:02:40.315Z,9.80
2018-11-14T13:05:09.806Z,9.70
2018-11-14T13:07:38.107Z,9.70
2018-11-14T13:10:07.822Z,9.70
2018-11-14T13:12:37.108Z,9.70
2018-11-14T13:15:06.725Z,9.70
2018-11-14T13:17:36.124Z,9.60
2018-11-14T13:20:06.830Z,9.60
2018-11-14T13:22:35.028Z,9.50
2018-11-14T13:25:03.357Z,9.40
2018-11-14T13:27:31.406Z,9.40
2018-11-14T13:29:59.553Z,9.40
2018-11-14T13:32:27.712Z,9.30
2018-11-14T13:34:55.877Z,9.20
2018-11-14T13:37:23.932Z,9.20
2018-11-14T13:39:52.706Z,9.10
2018-11-14T13:42:21.527Z,9.00
2018-11-14T13:44:50.301Z,9.00
2018-11-14T13:47:18.353Z,8.90
2018-11-14T13:49:46.568Z,8.90
2018-11-14T13:52:14.960Z,8.80
2018-11-14T13:54:43.064Z,8.80
2018-11-14T13:57:11.404Z,8.70
2018-11-14T13:59:39.649Z,8.70
2018-11-14T14:02:08.033Z,8.60
2018-11-14T14:04:36.031Z,8.60
2018-11-14T14:07:04.384Z,8.50
2018-11-14T14:09:32.445Z,8.50
2018-11-14T14:12:00.248Z,8.40
2018-11-14T14:14:28.250Z,8.40
2018-11-14T14:16:56.419Z,8.30
2018-11-14T14:19:24.616Z,8.30
2018-11-14T14:21:52.785Z,8.30
2018-11-14T14:24:22.374Z,8.20
2018-11-14T14:26:50.716Z,8.10
2018-11-14T14:29:18.943Z,8.10
2018-11-14T14:31:47.425Z,8.00
2018-11-14T14:34:16.195Z,8.00
2018-11-14T14:36:44.541Z,8.00
2018-11-14T14:39:13.175Z,8.00
2018-11-14T14:41:41.857Z,7.90
2018-11-14T14:44:10.350Z,7.90
2018-11-14T14:46:38.675Z,7.90
2018-11-14T14:49:06.749Z,7.80
2018-11-14T14:51:35.629Z,7.70
2018-11-14T14:54:04.339Z,7.60
2018-11-14T14:56:32.496Z,7.50
2018-11-14T14:59:00.629Z,7.50
2018-11-14T15:01:28.759Z,7.40
2018-11-14T15:03:56.974Z,7.30
2018-11-14T15:06:25.063Z,7.30
2018-11-14T15:08:53.602Z,7.20
2018-11-14T15:11:21.963Z,7.10
2018-11-14T15:13:50.503Z,7.00
2018-11-14T15:16:19.524Z,6.90
2018-11-14T15:18:47.983Z,6.80
2018-11-14T15:21:16.483Z,6.70
2018-11-14T15:23:46.104Z,6.60
2018-11-14T15:26:15.195Z,6.50
2018-11-14T15:28:45.515Z,6.40
2018-11-14T15:31:14.689Z,6.30
2018-11-14T15:33:42.955Z,6.20
2018-11-14T15:36:12.190Z,6.00
2018-11-14T15:38:40.355Z,5.90
2018-11-14T15:41:08.956Z,5.80
2018-11-14T15:43:38.440Z,5.70
2018-11-14T15:46:06.808Z,5.50
2018-11-14T15:48:35.000Z,5.40
2018-11-14T15:51:03.757Z,5.30
2018-11-14T15:53:31.873Z,5.20
2018-11-14T15:56:00.070Z,5.10
2018-11-14T15:58:28.704Z,5.00
2018-11-14T16:00:57.351Z,4.90
2018-11-14T16:03:25.905Z,4.80
2018-11-14T16:05:56.161Z,4.60
2018-11-14T16:08:26.409Z,4.40
2018-11-14T16:10:55.027Z,4.30
2018-11-14T16:13:25.287Z,4.20
2018-11-14T16:15:53.997Z,4.10
2018-11-14T16:18:22.359Z,4.00
2018-11-14T16:20:50.870Z,3.80
2018-11-14T16:23:19.031Z,3.70
2018-11-14T16:25:47.030Z,3.70
2018-11-14T16:28:15.427Z,3.60
2018-11-14T16:30:44.761Z,3.50
2018-11-14T16:33:12.893Z,3.40
2018-11-14T16:35:42.195Z,3.40
2018-11-14T16:38:10.532Z,3.40
2018-11-14T16:40:39.020Z,3.30
2018-11-14T16:43:08.320Z,3.20
2018-11-14T16:45:36.868Z,3.20
2018-11-14T16:48:04.789Z,3.10
2018-11-14T16:50:32.932Z,3.00
2018-11-14T16:53:01.312Z,2.90
2018-11-14T16:55:29.671Z,2.80
2018-11-14T16:57:58.176Z,2.80
2018-11-14T17:00:28.135Z,2.70
2018-11-14T17:02:56.124Z,2.60
2018-11-14T17:05:25.740Z,2.50
2018-11-14T17:07:54.090Z,2.40
2018-11-14T17:10:22.726Z,2.30
2018-11-14T17:12:53.785Z,2.30
2018-11-14T17:15:23.429Z,2.20
2018-11-14T17:17:51.813Z,2.10
2018-11-14T17:20:21.114Z,2.10
2018-11-14T17:22:50.794Z,2.00
2018-11-14T17:25:20.366Z,1.90
2018-11-14T17:27:49.200Z,1.90
2018-11-14T17:30:18.930Z,1.90
2018-11-14T17:32:47.163Z,1.80
2018-11-14T17:35:16.942Z,1.80
2018-11-14T17:37:45.848Z,1.70
2018-11-14T17:40:16.503Z,1.60
2018-11-14T17:42:45.389Z,1.60
2018-11-14T17:45:16.325Z,1.50
2018-11-14T17:47:44.898Z,1.40
2018-11-14T17:50:16.849Z,1.30
2018-11-14T17:52:45.040Z,1.30
2018-11-14T17:55:14.271Z,1.20
2018-11-14T17:57:42.602Z,1.10
2018-11-14T18:00:15.060Z,1.10
2018-11-14T18:02:44.961Z,1.10
2018-11-14T18:05:20.161Z,1.00
2018-11-14T18:07:49.474Z,1.00
2018-11-14T18:10:19.194Z,0.90
2018-11-14T18:12:48.694Z,0.90
2018-11-14T18:15:17.615Z,0.90
2018-11-14T18:17:47.444Z,0.80
2018-11-14T18:20:19.215Z,0.70
2018-11-14T18:22:48.199Z,0.70
2018-11-14T18:25:17.098Z,0.60
2018-11-14T18:27:45.423Z,0.50
2018-11-14T18:30:20.323Z,0.50
2018-11-14T18:32:50.040Z,0.50
2018-11-14T18:35:19.640Z,0.40
2018-11-14T18:37:48.374Z,0.40
2018-11-14T18:40:19.483Z,0.50
2018-11-14T18:42:48.148Z,0.50
2018-11-14T18:45:20.726Z,0.50
2018-11-14T18:47:49.110Z,0.50
2018-11-14T18:50:18.221Z,0.50
2018-11-14T18:52:46.986Z,0.50
2018-11-14T18:55:17.187Z,0.40
2018-11-14T18:57:45.653Z,0.40
2018-11-14T19:00:21.146Z,0.40
2018-11-14T19:02:49.580Z,0.30
2018-11-14T19:05:20.402Z,0.30
2018-11-14T19:07:48.739Z,0.30
2018-11-14T19:10:18.726Z,0.30
2018-11-14T19:12:47.932Z,0.30
2018-11-14T19:15:18.577Z,0.30
2018-11-14T19:17:46.671Z,0.40
2018-11-14T19:20:17.616Z,0.40
2018-11-14T19:22:47.295Z,0.40
2018-11-14T19:25:18.412Z,0.40
2018-11-14T19:27:46.849Z,0.40
2018-11-14T19:30:17.919Z,0.30
2018-11-14T19:32:47.903Z,0.30
2018-11-14T19:35:16.449Z,0.20
2018-11-14T19:37:45.804Z,0.20
2018-11-14T19:40:16.413Z,0.30
2018-11-14T19:42:45.425Z,0.30
2018-11-14T19:45:20.313Z,0.20
2018-11-14T19:47:48.473Z,0.20
2018-11-14T19:50:18.048Z,0.20
2018-11-14T19:52:46.938Z,0.10
2018-11-14T19:55:18.109Z,0.10
2018-11-14T19:57:50.918Z,0.10
2018-11-14T20:00:23.688Z,0.10
2018-11-14T20:02:53.065Z,0.00
2018-11-14T20:05:23.724Z,0.10
2018-11-14T20:07:52.682Z,0.00
2018-11-14T20:10:23.241Z,0.00
2018-11-14T20:12:53.311Z,-0.10
2018-11-14T20:15:25.602Z,-0.10
2018-11-14T20:17:56.330Z,-0.20
2018-11-14T20:20:27.065Z,-0.20
2018-11-14T20:22:56.220Z,-0.20
2018-11-14T20:25:24.510Z,-0.20
2018-11-14T20:27:53.091Z,-0.30
2018-11-14T20:30:23.160Z,-0.30
2018-11-14T20:32:55.066Z,-0.30
2018-11-14T20:35:25.069Z,-0.40
2018-11-14T20:37:53.327Z,-0.40
2018-11-14T20:40:22.646Z,-0.40
2018-11-14T20:42:52.380Z,-0.40
2018-11-14T20:45:24.110Z,-0.40
2018-11-14T20:47:52.718Z,-0.50
2018-11-14T20:50:23.133Z,-0.50
2018-11-14T20:52:54.491Z,-0.50
2018-11-14T20:55:22.981Z,-0.50
2018-11-14T20:57:52.763Z,-0.50
2018-11-14T21:00:34.420Z,-0.60
2018-11-14T21:03:03.264Z,-0.60
2018-11-14T21:05:32.139Z,-0.50
2018-11-14T21:08:00.455Z,-0.50
2018-11-14T21:10:30.718Z,-0.60
2018-11-14T21:13:00.302Z,-0.60
2018-11-14T21:15:33.413Z,-0.60
2018-11-14T21:18:02.951Z,-0.70
2018-11-14T21:20:31.723Z,-0.70
2018-11-14T21:23:00.291Z,-0.70
2018-11-14T21:28:13.136Z,-0.80
2018-11-14T21:30:41.397Z,-0.70
2018-11-14T21:33:09.581Z,-0.70
2018-11-14T21:35:38.154Z,-0.80
2018-11-14T21:38:08.469Z,-0.80
2018-11-14T21:40:36.926Z,-0.80
2018-11-14T21:43:05.845Z,-0.90
2018-11-14T21:45:34.212Z,-1.00
2018-11-14T21:48:07.972Z,-1.00
2018-11-14T21:50:36.084Z,-1.00
2018-11-14T21:53:04.545Z,-1.00
2018-11-14T21:55:32.602Z,-1.00
2018-11-14T21:58:00.848Z,-1.00
2018-11-14T22:00:39.551Z,-1.00
2018-11-14T22:03:08.746Z,-1.00
2018-11-14T22:05:37.941Z,-1.10
2018-11-14T22:08:06.395Z,-1.10
2018-11-14T22:10:34.782Z,-1.10
2018-11-14T22:13:03.199Z,-1.20
2018-11-14T22:15:32.089Z,-1.20
2018-11-14T22:18:00.324Z,-1.30
2018-11-14T22:20:29.257Z,-1.30
2018-11-14T22:22:57.889Z,-1.30
2018-11-14T22:25:27.645Z,-1.30
2018-11-14T22:27:56.545Z,-1.40
2018-11-14T22:30:29.428Z,-1.50
2018-11-14T22:32:57.680Z,-1.50
2018-11-14T22:35:27.284Z,-1.50
2018-11-14T22:37:55.574Z,-1.50
2018-11-14T22:40:26.074Z,-1.50
2018-11-14T22:42:54.962Z,-1.60
2018-11-14T22:45:25.206Z,-1.60
2018-11-14T22:47:53.225Z,-1.60
2018-11-14T22:50:22.532Z,-1.70
2018-11-14T22:52:50.751Z,-1.70
2018-11-14T22:55:20.316Z,-1.70
2018-11-14T22:57:49.473Z,-1.70
2018-11-14T23:00:22.647Z,-1.70
2018-11-14T23:02:52.725Z,-1.70
2018-11-14T23:05:20.682Z,-1.80
2018-11-14T23:07:50.380Z,-1.70
2018-11-14T23:10:19.562Z,-1.70
2018-11-14T23:12:48.210Z,-1.70
2018-11-14T23:15:16.650Z,-1.80
2018-11-14T23:17:44.651Z,-1.70
2018-11-14T23:20:13.899Z,-1.80
2018-11-14T23:22:43.492Z,-1.80
2018-11-14T23:25:12.258Z,-1.80
2018-11-14T23:27:42.081Z,-1.80
2018-11-14T23:30:11.847Z,-1.80
2018-11-14T23:32:41.058Z,-1.80
2018-11-14T23:35:14.839Z,-1.80
2018-11-14T23:37:43.505Z,-1.90
2018-11-14T23:40:11.924Z,-1.90
2018-11-14T23:42:40.156Z,-2.00
2018-11-14T23:45:10.435Z,-2.00
2018-11-14T23:47:38.440Z,-2.10
2018-11-14T23:50:11.310Z,-2.10
2018-11-14T23:52:39.524Z,-2.10
2018-11-14T23:55:07.996Z,-2.10
2018-11-14T23:57:36.022Z,-2.10
